KNLC/NLC METAR and TAF weather

Enter ICAO airport designator
Station Type Date Time Source
KNLC METAR 2021/09/23 16:56 UTC NOAA

KNLC 231656Z 31010KT 10SM FEW055 FEW200 27/06 A2993 RMK AO2 SLP133 FU FEW055 RH/26 T02670061


Station Type Date Time Source
KNLC Decoded METAR 2021/09/23 16:56 UTC NOAA

LEMOORE NAVAL AIR STATION, CA, United States (KNLC) 36-20N 119-57W 72M
Sep 23, 2021 - 12:56 PM EDT / 2021.09.23 1656 UTC
Wind: from the NW (310 degrees) at 12 MPH (10 KT):0
Visibility: 10 mile(s):0
Sky conditions: mostly clear
Temperature: 80.1 F (26.7 C)
Dew Point: 43.0 F (6.1 C)
Relative Humidity: 26%
Pressure (altimeter): 29.93 in. Hg (1013 hPa)
ob: KNLC 231656Z 31010KT 10SM FEW055 FEW200 27/06 A2993 RMK AO2 SLP133 FU FEW055 RH/26 T02670061
cycle: 17

Station Type Date Time Source
KNLC TAF 2021/09/23 15:57 UTC NOAA

TAF TAF KNLC 2315/2415 VRB06KT 9999 FEW050 QNH2980INS
TEMPO 2316/2322 33007KT 9000 HZ FU SCT050
FM232200 01009KT 9000 HZ FU SCT040 QNH2979INS T34/2323Z T17/2413Z FS30067

Example: see airport list